Aviation Digital Data Service (ADDS)

Output produced by METARs form (1531 UTC 27 September 2016)
found at http://aviationweather.gov/adds/metars/
 
KRDU 271139Z 2712/2812 20005KT P6SM -SHRA SCT020 BKN100 
     FM271600 19004KT P6SM BKN050 OVC070 
     TEMPO 2716/2720 3SM -SHRA BKN030 
     FM280000 20003KT P6SM SCT050 OVC100 
     FM280800 19002KT 4SM BR SCT015 OVC035